sensor_id;sensor_type;location;lat;lon;timestamp;P1;durP1;ratioP1;P2;durP2;ratioP2
20014;SDS011;61787;42.022;23.078;2022-10-18T00:00:10;4.30;;;3.30;;
20014;SDS011;61787;42.022;23.078;2022-10-18T00:01:12;4.53;;;3.50;;
20014;SDS011;61787;42.022;23.078;2022-10-18T00:02:14;6.40;;;3.57;;
20014;SDS011;61787;42.022;23.078;2022-10-18T00:03:16;6.23;;;3.63;;
20014;SDS011;61787;42.022;23.078;2022-10-18T00:04:17;6.20;;;3.70;;
20014;SDS011;61787;42.022;23.078;2022-10-18T00:05:19;5.87;;;3.73;;
20014;SDS011;61787;42.022;23.078;2022-10-18T00:06:20;7.33;;;4.40;;
20014;SDS011;61787;42.022;23.078;2022-10-18T00:07:22;6.17;;;4.20;;
20014;SDS011;61787;42.022;23.078;2022-10-18T00:08:24;4.83;;;3.77;;
20014;SDS011;61787;42.022;23.078;2022-10-18T00:09:26;7.80;;;4.07;;
20014;SDS011;61787;42.022;23.078;2022-10-18T00:10:28;4.67;;;3.83;;
20014;SDS011;61787;42.022;23.078;2022-10-18T00:11:29;5.13;;;3.87;;
20014;SDS011;61787;42.022;23.078;2022-10-18T00:12:32;6.10;;;4.13;;
20014;SDS011;61787;42.022;23.078;2022-10-18T00:13:37;7.60;;;4.40;;
20014;SDS011;61787;42.022;23.078;2022-10-18T00:14:39;7.37;;;4.03;;
20014;SDS011;61787;42.022;23.078;2022-10-18T00:16:15;5.83;;;3.90;;
20014;SDS011;61787;42.022;23.078;2022-10-18T00:17:13;5.67;;;4.20;;
20014;SDS011;61787;42.022;23.078;2022-10-18T00:18:14;4.80;;;3.53;;
20014;SDS011;61787;42.022;23.078;2022-10-18T00:19:16;3.90;;;3.23;;
20014;SDS011;61787;42.022;23.078;2022-10-18T00:20:17;4.30;;;3.27;;
20014;SDS011;61787;42.022;23.078;2022-10-18T00:21:20;5.63;;;3.23;;
20014;SDS011;61787;42.022;23.078;2022-10-18T00:22:23;4.53;;;3.20;;
20014;SDS011;61787;42.022;23.078;2022-10-18T00:23:25;4.33;;;3.43;;
20014;SDS011;61787;42.022;23.078;2022-10-18T00:24:28;4.80;;;3.70;;
20014;SDS011;61787;42.022;23.078;2022-10-18T00:25:30;5.03;;;3.33;;
20014;SDS011;61787;42.022;23.078;2022-10-18T00:26:31;5.17;;;3.53;;
20014;SDS011;61787;42.022;23.078;2022-10-18T00:27:33;5.63;;;3.20;;
20014;SDS011;61787;42.022;23.078;2022-10-18T00:28:35;5.90;;;3.70;;
20014;SDS011;61787;42.022;23.078;2022-10-18T00:29:39;4.83;;;3.37;;
20014;SDS011;61787;42.022;23.078;2022-10-18T00:30:40;5.23;;;3.33;;
20014;SDS011;61787;42.022;23.078;2022-10-18T00:31:42;4.47;;;3.33;;
20014;SDS011;61787;42.022;23.078;2022-10-18T00:32:44;6.33;;;3.50;;
20014;SDS011;61787;42.022;23.078;2022-10-18T00:33:48;5.43;;;2.90;;
20014;SDS011;61787;42.022;23.078;2022-10-18T00:34:51;5.07;;;3.30;;
20014;SDS011;61787;42.022;23.078;2022-10-18T00:35:52;8.47;;;3.20;;
20014;SDS011;61787;42.022;23.078;2022-10-18T00:36:54;5.33;;;3.20;;
20014;SDS011;61787;42.022;23.078;2022-10-18T00:37:56;4.50;;;3.47;;
20014;SDS011;61787;42.022;23.078;2022-10-18T00:38:57;6.87;;;3.40;;
20014;SDS011;61787;42.022;23.078;2022-10-18T00:39:59;4.47;;;3.23;;
20014;SDS011;61787;42.022;23.078;2022-10-18T00:41:01;4.17;;;3.10;;
20014;SDS011;61787;42.022;23.078;2022-10-18T00:42:03;4.67;;;3.70;;
20014;SDS011;61787;42.022;23.078;2022-10-18T00:43:05;5.17;;;3.27;;
20014;SDS011;61787;42.022;23.078;2022-10-18T00:45:00;5.83;;;3.63;;
20014;SDS011;61787;42.022;23.078;2022-10-18T00:45:28;3.67;;;3.37;;
20014;SDS011;61787;42.022;23.078;2022-10-18T00:46:30;6.20;;;3.70;;
20014;SDS011;61787;42.022;23.078;2022-10-18T00:47:34;6.03;;;3.60;;
20014;SDS011;61787;42.022;23.078;2022-10-18T00:48:36;5.90;;;3.40;;
20014;SDS011;61787;42.022;23.078;2022-10-18T00:49:39;6.07;;;3.20;;
20014;SDS011;61787;42.022;23.078;2022-10-18T00:50:44;5.60;;;3.57;;
20014;SDS011;61787;42.022;23.078;2022-10-18T00:51:55;3.77;;;3.37;;
20014;SDS011;61787;42.022;23.078;2022-10-18T00:53:02;6.37;;;3.30;;
20014;SDS011;61787;42.022;23.078;2022-10-18T00:54:07;5.03;;;3.60;;
20014;SDS011;61787;42.022;23.078;2022-10-18T00:55:08;5.00;;;4.13;;
20014;SDS011;61787;42.022;23.078;2022-10-18T00:56:11;5.07;;;3.77;;
20014;SDS011;61787;42.022;23.078;2022-10-18T00:57:13;4.77;;;3.90;;
20014;SDS011;61787;42.022;23.078;2022-10-18T00:58:16;6.53;;;4.03;;
20014;SDS011;61787;42.022;23.078;2022-10-18T00:59:19;4.43;;;3.60;;
20014;SDS011;61787;42.022;23.078;2022-10-18T01:00:21;8.37;;;3.77;;
20014;SDS011;61787;42.022;23.078;2022-10-18T01:01:23;4.23;;;3.70;;
20014;SDS011;61787;42.022;23.078;2022-10-18T01:02:28;5.33;;;3.80;;
20014;SDS011;61787;42.022;23.078;2022-10-18T01:03:32;6.40;;;3.90;;
20014;SDS011;61787;42.022;23.078;2022-10-18T01:04:35;6.03;;;3.70;;
20014;SDS011;61787;42.022;23.078;2022-10-18T01:05:39;6.60;;;4.37;;
20014;SDS011;61787;42.022;23.078;2022-10-18T01:07:05;6.43;;;3.77;;
20014;SDS011;61787;42.022;23.078;2022-10-18T01:09:27;5.37;;;3.80;;
20014;SDS011;61787;42.022;23.078;2022-10-18T01:10:39;7.40;;;4.17;;
20014;SDS011;61787;42.022;23.078;2022-10-18T01:16:13;6.83;;;4.33;;
20014;SDS011;61787;42.022;23.078;2022-10-18T01:17:23;5.93;;;3.90;;
20014;SDS011;61787;42.022;23.078;2022-10-18T01:21:11;6.00;;;3.97;;
20014;SDS011;61787;42.022;23.078;2022-10-18T01:22:23;5.83;;;4.27;;
20014;SDS011;61787;42.022;23.078;2022-10-18T01:27:42;6.33;;;4.27;;
20014;SDS011;61787;42.022;23.078;2022-10-18T01:29:13;5.67;;;4.23;;
20014;SDS011;61787;42.022;23.078;2022-10-18T01:30:31;5.30;;;4.10;;
20014;SDS011;61787;42.022;23.078;2022-10-18T01:32:01;6.40;;;4.30;;
20014;SDS011;61787;42.022;23.078;2022-10-18T01:34:10;5.73;;;4.20;;
20014;SDS011;61787;42.022;23.078;2022-10-18T01:35:18;4.53;;;3.67;;
20014;SDS011;61787;42.022;23.078;2022-10-18T01:37:35;6.80;;;3.50;;
20014;SDS011;61787;42.022;23.078;2022-10-18T01:38:38;5.10;;;3.20;;
20014;SDS011;61787;42.022;23.078;2022-10-18T01:39:44;4.07;;;3.10;;
20014;SDS011;61787;42.022;23.078;2022-10-18T01:40:47;6.33;;;3.13;;
20014;SDS011;61787;42.022;23.078;2022-10-18T01:41:50;4.50;;;3.13;;
20014;SDS011;61787;42.022;23.078;2022-10-18T01:42:54;6.33;;;2.87;;
20014;SDS011;61787;42.022;23.078;2022-10-18T01:43:57;3.00;;;2.53;;
20014;SDS011;61787;42.022;23.078;2022-10-18T01:45:02;3.30;;;2.53;;
20014;SDS011;61787;42.022;23.078;2022-10-18T01:46:04;3.63;;;2.90;;
20014;SDS011;61787;42.022;23.078;2022-10-18T01:47:08;5.07;;;2.43;;
20014;SDS011;61787;42.022;23.078;2022-10-18T01:48:13;4.27;;;2.80;;
20014;SDS011;61787;42.022;23.078;2022-10-18T01:49:16;4.43;;;2.73;;
20014;SDS011;61787;42.022;23.078;2022-10-18T01:50:26;3.73;;;2.83;;
20014;SDS011;61787;42.022;23.078;2022-10-18T01:51:30;4.17;;;2.50;;
20014;SDS011;61787;42.022;23.078;2022-10-18T01:52:33;7.03;;;2.67;;
20014;SDS011;61787;42.022;23.078;2022-10-18T01:53:35;5.00;;;2.77;;
20014;SDS011;61787;42.022;23.078;2022-10-18T01:54:38;3.43;;;2.70;;
20014;SDS011;61787;42.022;23.078;2022-10-18T01:55:43;3.40;;;2.57;;
20014;SDS011;61787;42.022;23.078;2022-10-18T01:56:54;3.50;;;2.60;;
20014;SDS011;61787;42.022;23.078;2022-10-18T02:01:02;4.93;;;3.10;;
20014;SDS011;61787;42.022;23.078;2022-10-18T02:02:28;5.80;;;3.33;;
20014;SDS011;61787;42.022;23.078;2022-10-18T02:03:41;4.40;;;3.77;;
20014;SDS011;61787;42.022;23.078;2022-10-18T02:04:58;5.07;;;3.33;;
20014;SDS011;61787;42.022;23.078;2022-10-18T02:06:08;6.57;;;3.90;;
20014;SDS011;61787;42.022;23.078;2022-10-18T02:07:30;5.60;;;3.60;;
20014;SDS011;61787;42.022;23.078;2022-10-18T02:08:38;5.53;;;4.07;;
20014;SDS011;61787;42.022;23.078;2022-10-18T02:09:47;4.17;;;3.77;;
20014;SDS011;61787;42.022;23.078;2022-10-18T02:10:58;6.10;;;3.70;;
20014;SDS011;61787;42.022;23.078;2022-10-18T02:12:02;6.00;;;3.70;;
20014;SDS011;61787;42.022;23.078;2022-10-18T02:13:07;6.17;;;3.70;;
20014;SDS011;61787;42.022;23.078;2022-10-18T02:14:11;4.90;;;3.53;;
20014;SDS011;61787;42.022;23.078;2022-10-18T02:15:18;4.83;;;3.73;;
20014;SDS011;61787;42.022;23.078;2022-10-18T02:16:31;5.93;;;3.90;;
20014;SDS011;61787;42.022;23.078;2022-10-18T02:17:38;4.57;;;3.23;;
20014;SDS011;61787;42.022;23.078;2022-10-18T02:19:03;6.70;;;3.80;;
20014;SDS011;61787;42.022;23.078;2022-10-18T02:20:07;5.50;;;3.93;;
20014;SDS011;61787;42.022;23.078;2022-10-18T02:21:11;6.37;;;3.50;;
20014;SDS011;61787;42.022;23.078;2022-10-18T02:22:16;7.33;;;3.93;;
20014;SDS011;61787;42.022;23.078;2022-10-18T02:23:19;5.67;;;3.90;;
20014;SDS011;61787;42.022;23.078;2022-10-18T02:24:26;5.40;;;3.67;;
20014;SDS011;61787;42.022;23.078;2022-10-18T02:25:34;8.40;;;4.10;;
20014;SDS011;61787;42.022;23.078;2022-10-18T02:26:37;5.27;;;4.30;;
20014;SDS011;61787;42.022;23.078;2022-10-18T02:27:38;4.03;;;3.60;;
20014;SDS011;61787;42.022;23.078;2022-10-18T02:28:40;7.20;;;4.20;;
20014;SDS011;61787;42.022;23.078;2022-10-18T02:29:42;8.13;;;4.30;;
20014;SDS011;61787;42.022;23.078;2022-10-18T02:30:47;8.17;;;4.37;;
20014;SDS011;61787;42.022;23.078;2022-10-18T02:33:33;5.83;;;3.97;;
20014;SDS011;61787;42.022;23.078;2022-10-18T02:34:46;6.27;;;3.67;;
20014;SDS011;61787;42.022;23.078;2022-10-18T02:35:58;5.77;;;4.03;;
20014;SDS011;61787;42.022;23.078;2022-10-18T02:37:10;7.20;;;4.10;;
20014;SDS011;61787;42.022;23.078;2022-10-18T02:38:14;5.97;;;3.60;;
20014;SDS011;61787;42.022;23.078;2022-10-18T02:39:22;4.60;;;3.73;;
20014;SDS011;61787;42.022;23.078;2022-10-18T02:40:35;5.80;;;3.80;;
20014;SDS011;61787;42.022;23.078;2022-10-18T02:41:37;4.17;;;3.70;;
20014;SDS011;61787;42.022;23.078;2022-10-18T02:42:43;4.37;;;3.83;;
20014;SDS011;61787;42.022;23.078;2022-10-18T02:43:51;7.27;;;4.23;;
20014;SDS011;61787;42.022;23.078;2022-10-18T02:44:53;4.47;;;3.80;;
20014;SDS011;61787;42.022;23.078;2022-10-18T02:45:54;5.27;;;3.77;;
20014;SDS011;61787;42.022;23.078;2022-10-18T02:46:56;5.70;;;4.07;;
20014;SDS011;61787;42.022;23.078;2022-10-18T02:47:57;4.43;;;3.93;;
20014;SDS011;61787;42.022;23.078;2022-10-18T02:48:59;5.40;;;4.27;;
20014;SDS011;61787;42.022;23.078;2022-10-18T02:50:00;5.37;;;3.90;;
20014;SDS011;61787;42.022;23.078;2022-10-18T02:51:02;7.10;;;4.37;;
20014;SDS011;61787;42.022;23.078;2022-10-18T02:52:04;5.57;;;4.00;;
20014;SDS011;61787;42.022;23.078;2022-10-18T02:53:05;5.77;;;4.20;;
20014;SDS011;61787;42.022;23.078;2022-10-18T02:54:07;7.23;;;4.23;;
20014;SDS011;61787;42.022;23.078;2022-10-18T02:55:08;5.40;;;4.47;;
20014;SDS011;61787;42.022;23.078;2022-10-18T02:56:10;4.93;;;3.90;;
20014;SDS011;61787;42.022;23.078;2022-10-18T02:57:12;9.13;;;4.17;;
20014;SDS011;61787;42.022;23.078;2022-10-18T02:58:14;6.60;;;4.17;;
20014;SDS011;61787;42.022;23.078;2022-10-18T02:59:15;5.17;;;4.10;;
20014;SDS011;61787;42.022;23.078;2022-10-18T03:00:17;6.63;;;4.60;;
20014;SDS011;61787;42.022;23.078;2022-10-18T03:01:18;6.10;;;4.30;;
20014;SDS011;61787;42.022;23.078;2022-10-18T03:02:20;5.90;;;4.47;;
20014;SDS011;61787;42.022;23.078;2022-10-18T03:03:21;7.43;;;4.37;;
20014;SDS011;61787;42.022;23.078;2022-10-18T03:04:23;7.47;;;4.77;;
20014;SDS011;61787;42.022;23.078;2022-10-18T03:05:25;6.57;;;4.27;;
20014;SDS011;61787;42.022;23.078;2022-10-18T03:06:26;6.30;;;4.80;;
20014;SDS011;61787;42.022;23.078;2022-10-18T03:07:28;7.67;;;4.73;;
20014;SDS011;61787;42.022;23.078;2022-10-18T03:08:31;6.93;;;4.50;;
20014;SDS011;61787;42.022;23.078;2022-10-18T03:09:32;6.57;;;4.27;;
20014;SDS011;61787;42.022;23.078;2022-10-18T03:10:34;5.80;;;4.27;;
20014;SDS011;61787;42.022;23.078;2022-10-18T03:11:35;5.77;;;4.53;;
20014;SDS011;61787;42.022;23.078;2022-10-18T03:12:37;6.37;;;5.07;;
20014;SDS011;61787;42.022;23.078;2022-10-18T03:13:38;8.43;;;5.13;;
20014;SDS011;61787;42.022;23.078;2022-10-18T03:14:40;8.53;;;5.60;;
20014;SDS011;61787;42.022;23.078;2022-10-18T03:15:42;8.73;;;5.03;;
20014;SDS011;61787;42.022;23.078;2022-10-18T03:16:43;7.23;;;4.80;;
20014;SDS011;61787;42.022;23.078;2022-10-18T03:17:45;6.70;;;4.73;;
20014;SDS011;61787;42.022;23.078;2022-10-18T03:18:46;10.67;;;5.20;;
20014;SDS011;61787;42.022;23.078;2022-10-18T03:19:48;10.07;;;4.90;;
20014;SDS011;61787;42.022;23.078;2022-10-18T03:20:49;9.03;;;5.63;;
20014;SDS011;61787;42.022;23.078;2022-10-18T03:21:51;11.07;;;5.07;;
20014;SDS011;61787;42.022;23.078;2022-10-18T03:22:52;9.23;;;5.10;;
20014;SDS011;61787;42.022;23.078;2022-10-18T03:23:54;6.83;;;4.73;;
20014;SDS011;61787;42.022;23.078;2022-10-18T03:24:56;7.17;;;4.80;;
20014;SDS011;61787;42.022;23.078;2022-10-18T03:25:57;8.03;;;5.17;;
20014;SDS011;61787;42.022;23.078;2022-10-18T03:26:59;6.77;;;4.67;;
20014;SDS011;61787;42.022;23.078;2022-10-18T03:28:01;8.70;;;4.93;;
20014;SDS011;61787;42.022;23.078;2022-10-18T03:29:02;6.87;;;4.47;;
20014;SDS011;61787;42.022;23.078;2022-10-18T03:30:04;6.40;;;4.90;;
20014;SDS011;61787;42.022;23.078;2022-10-18T03:31:06;6.70;;;4.63;;
20014;SDS011;61787;42.022;23.078;2022-10-18T03:32:07;6.30;;;4.60;;
20014;SDS011;61787;42.022;23.078;2022-10-18T03:33:09;10.47;;;4.97;;
20014;SDS011;61787;42.022;23.078;2022-10-18T03:34:10;8.80;;;5.50;;
20014;SDS011;61787;42.022;23.078;2022-10-18T03:35:12;8.17;;;5.23;;
20014;SDS011;61787;42.022;23.078;2022-10-18T03:36:13;8.13;;;5.20;;
20014;SDS011;61787;42.022;23.078;2022-10-18T03:37:15;7.80;;;5.23;;
20014;SDS011;61787;42.022;23.078;2022-10-18T03:38:17;8.87;;;5.13;;
20014;SDS011;61787;42.022;23.078;2022-10-18T03:39:19;7.70;;;4.93;;
20014;SDS011;61787;42.022;23.078;2022-10-18T03:40:21;7.33;;;5.07;;
20014;SDS011;61787;42.022;23.078;2022-10-18T03:41:23;7.73;;;4.90;;
20014;SDS011;61787;42.022;23.078;2022-10-18T03:42:24;8.57;;;5.27;;
20014;SDS011;61787;42.022;23.078;2022-10-18T03:43:26;6.33;;;5.43;;
20014;SDS011;61787;42.022;23.078;2022-10-18T03:44:28;6.80;;;5.40;;
20014;SDS011;61787;42.022;23.078;2022-10-18T03:45:29;10.57;;;5.00;;
20014;SDS011;61787;42.022;23.078;2022-10-18T03:46:31;7.17;;;5.23;;
20014;SDS011;61787;42.022;23.078;2022-10-18T03:47:33;8.37;;;5.50;;
20014;SDS011;61787;42.022;23.078;2022-10-18T03:48:35;12.27;;;5.57;;
20014;SDS011;61787;42.022;23.078;2022-10-18T03:49:37;6.23;;;5.07;;
20014;SDS011;61787;42.022;23.078;2022-10-18T03:50:39;7.53;;;5.17;;
20014;SDS011;61787;42.022;23.078;2022-10-18T03:51:41;8.10;;;5.47;;
20014;SDS011;61787;42.022;23.078;2022-10-18T03:52:42;10.17;;;5.30;;
20014;SDS011;61787;42.022;23.078;2022-10-18T03:53:44;9.37;;;5.47;;
20014;SDS011;61787;42.022;23.078;2022-10-18T03:54:45;7.20;;;5.40;;
20014;SDS011;61787;42.022;23.078;2022-10-18T03:55:53;6.03;;;5.10;;
20014;SDS011;61787;42.022;23.078;2022-10-18T03:56:55;5.57;;;4.97;;
20014;SDS011;61787;42.022;23.078;2022-10-18T03:57:57;6.97;;;5.20;;
20014;SDS011;61787;42.022;23.078;2022-10-18T03:58:59;7.60;;;5.73;;
20014;SDS011;61787;42.022;23.078;2022-10-18T04:00:00;9.67;;;5.40;;
20014;SDS011;61787;42.022;23.078;2022-10-18T04:01:02;8.63;;;5.50;;
20014;SDS011;61787;42.022;23.078;2022-10-18T04:02:04;10.13;;;5.63;;
20014;SDS011;61787;42.022;23.078;2022-10-18T04:03:05;6.23;;;5.10;;
20014;SDS011;61787;42.022;23.078;2022-10-18T04:04:07;8.17;;;5.77;;
20014;SDS011;61787;42.022;23.078;2022-10-18T04:05:08;9.17;;;5.87;;
20014;SDS011;61787;42.022;23.078;2022-10-18T04:06:10;8.77;;;5.77;;
20014;SDS011;61787;42.022;23.078;2022-10-18T04:07:12;7.20;;;5.50;;
20014;SDS011;61787;42.022;23.078;2022-10-18T04:08:13;7.53;;;6.10;;
20014;SDS011;61787;42.022;23.078;2022-10-18T04:09:15;7.67;;;6.27;;
20014;SDS011;61787;42.022;23.078;2022-10-18T04:10:17;9.53;;;5.80;;
20014;SDS011;61787;42.022;23.078;2022-10-18T04:11:19;8.80;;;5.53;;
20014;SDS011;61787;42.022;23.078;2022-10-18T04:12:20;7.63;;;5.87;;
20014;SDS011;61787;42.022;23.078;2022-10-18T04:13:22;9.53;;;6.20;;
20014;SDS011;61787;42.022;23.078;2022-10-18T04:14:23;7.90;;;6.13;;
20014;SDS011;61787;42.022;23.078;2022-10-18T04:15:25;7.27;;;6.13;;
20014;SDS011;61787;42.022;23.078;2022-10-18T04:16:26;8.47;;;6.40;;
20014;SDS011;61787;42.022;23.078;2022-10-18T04:17:28;8.57;;;6.10;;
20014;SDS011;61787;42.022;23.078;2022-10-18T04:18:30;9.33;;;6.70;;
20014;SDS011;61787;42.022;23.078;2022-10-18T04:19:35;8.87;;;6.27;;
20014;SDS011;61787;42.022;23.078;2022-10-18T04:20:36;9.17;;;7.00;;
20014;SDS011;61787;42.022;23.078;2022-10-18T04:21:38;8.00;;;6.30;;
20014;SDS011;61787;42.022;23.078;2022-10-18T04:22:40;9.57;;;6.70;;
20014;SDS011;61787;42.022;23.078;2022-10-18T04:23:41;9.23;;;6.67;;
20014;SDS011;61787;42.022;23.078;2022-10-18T04:24:43;9.60;;;5.83;;
20014;SDS011;61787;42.022;23.078;2022-10-18T04:25:44;6.40;;;5.60;;
20014;SDS011;61787;42.022;23.078;2022-10-18T04:26:46;9.37;;;5.53;;
20014;SDS011;61787;42.022;23.078;2022-10-18T04:27:48;9.00;;;6.10;;
20014;SDS011;61787;42.022;23.078;2022-10-18T04:28:49;9.80;;;6.67;;
20014;SDS011;61787;42.022;23.078;2022-10-18T04:29:51;7.57;;;6.37;;
20014;SDS011;61787;42.022;23.078;2022-10-18T04:30:52;9.30;;;6.27;;
20014;SDS011;61787;42.022;23.078;2022-10-18T04:31:54;7.40;;;6.33;;
20014;SDS011;61787;42.022;23.078;2022-10-18T04:32:56;10.00;;;6.13;;
20014;SDS011;61787;42.022;23.078;2022-10-18T04:33:57;8.27;;;6.30;;
20014;SDS011;61787;42.022;23.078;2022-10-18T04:34:59;8.37;;;5.90;;
20014;SDS011;61787;42.022;23.078;2022-10-18T04:36:00;8.87;;;6.33;;
20014;SDS011;61787;42.022;23.078;2022-10-18T04:37:02;6.90;;;6.00;;
20014;SDS011;61787;42.022;23.078;2022-10-18T04:38:03;9.93;;;6.40;;
20014;SDS011;61787;42.022;23.078;2022-10-18T04:39:05;8.33;;;6.30;;
20014;SDS011;61787;42.022;23.078;2022-10-18T04:40:07;7.20;;;6.23;;
20014;SDS011;61787;42.022;23.078;2022-10-18T04:41:09;7.03;;;5.80;;
20014;SDS011;61787;42.022;23.078;2022-10-18T04:42:11;7.47;;;6.10;;
20014;SDS011;61787;42.022;23.078;2022-10-18T04:43:12;10.17;;;6.73;;
20014;SDS011;61787;42.022;23.078;2022-10-18T04:44:14;7.17;;;6.20;;
20014;SDS011;61787;42.022;23.078;2022-10-18T04:45:15;7.73;;;5.93;;
20014;SDS011;61787;42.022;23.078;2022-10-18T04:46:17;9.63;;;6.37;;
20014;SDS011;61787;42.022;23.078;2022-10-18T04:47:19;6.93;;;6.10;;
20014;SDS011;61787;42.022;23.078;2022-10-18T04:48:20;8.03;;;6.23;;
20014;SDS011;61787;42.022;23.078;2022-10-18T04:49:22;11.70;;;6.57;;
20014;SDS011;61787;42.022;23.078;2022-10-18T04:50:23;7.53;;;6.27;;
20014;SDS011;61787;42.022;23.078;2022-10-18T04:51:25;9.80;;;7.10;;
20014;SDS011;61787;42.022;23.078;2022-10-18T04:52:27;10.20;;;7.00;;
20014;SDS011;61787;42.022;23.078;2022-10-18T04:53:28;9.07;;;6.33;;
20014;SDS011;61787;42.022;23.078;2022-10-18T04:54:30;10.70;;;6.60;;
20014;SDS011;61787;42.022;23.078;2022-10-18T04:55:32;8.00;;;6.27;;
20014;SDS011;61787;42.022;23.078;2022-10-18T04:56:33;10.10;;;6.40;;
20014;SDS011;61787;42.022;23.078;2022-10-18T04:57:35;8.50;;;6.13;;
20014;SDS011;61787;42.022;23.078;2022-10-18T04:58:36;8.67;;;6.33;;
20014;SDS011;61787;42.022;23.078;2022-10-18T04:59:38;8.30;;;6.40;;
20014;SDS011;61787;42.022;23.078;2022-10-18T05:00:40;9.57;;;6.57;;
20014;SDS011;61787;42.022;23.078;2022-10-18T05:01:42;8.73;;;6.43;;
20014;SDS011;61787;42.022;23.078;2022-10-18T05:02:44;11.00;;;6.40;;
20014;SDS011;61787;42.022;23.078;2022-10-18T05:03:45;8.97;;;6.40;;
20014;SDS011;61787;42.022;23.078;2022-10-18T05:04:47;11.80;;;6.30;;
20014;SDS011;61787;42.022;23.078;2022-10-18T05:05:48;8.83;;;6.30;;
20014;SDS011;61787;42.022;23.078;2022-10-18T05:07:01;11.30;;;6.87;;
20014;SDS011;61787;42.022;23.078;2022-10-18T05:08:03;8.83;;;6.03;;
20014;SDS011;61787;42.022;23.078;2022-10-18T05:09:06;7.63;;;6.30;;
20014;SDS011;61787;42.022;23.078;2022-10-18T05:10:08;9.73;;;6.93;;
20014;SDS011;61787;42.022;23.078;2022-10-18T05:11:10;8.77;;;6.47;;
20014;SDS011;61787;42.022;23.078;2022-10-18T05:12:11;10.57;;;6.60;;
20014;SDS011;61787;42.022;23.078;2022-10-18T05:13:13;10.80;;;6.67;;
20014;SDS011;61787;42.022;23.078;2022-10-18T05:14:15;8.93;;;6.13;;
20014;SDS011;61787;42.022;23.078;2022-10-18T05:15:17;8.33;;;6.83;;
20014;SDS011;61787;42.022;23.078;2022-10-18T05:16:18;10.93;;;6.90;;
20014;SDS011;61787;42.022;23.078;2022-10-18T05:17:20;15.63;;;7.40;;
20014;SDS011;61787;42.022;23.078;2022-10-18T05:18:22;11.50;;;6.80;;
20014;SDS011;61787;42.022;23.078;2022-10-18T05:19:23;15.10;;;7.63;;
20014;SDS011;61787;42.022;23.078;2022-10-18T05:20:25;14.67;;;7.63;;
20014;SDS011;61787;42.022;23.078;2022-10-18T05:21:26;15.20;;;7.67;;
20014;SDS011;61787;42.022;23.078;2022-10-18T05:22:28;10.60;;;7.37;;
20014;SDS011;61787;42.022;23.078;2022-10-18T05:23:30;14.77;;;8.13;;
20014;SDS011;61787;42.022;23.078;2022-10-18T05:24:31;15.73;;;8.97;;
20014;SDS011;61787;42.022;23.078;2022-10-18T05:25:33;15.57;;;9.67;;
20014;SDS011;61787;42.022;23.078;2022-10-18T05:26:34;19.93;;;10.03;;
20014;SDS011;61787;42.022;23.078;2022-10-18T05:27:36;17.77;;;9.60;;
20014;SDS011;61787;42.022;23.078;2022-10-18T05:28:38;20.80;;;10.07;;
20014;SDS011;61787;42.022;23.078;2022-10-18T05:29:41;20.60;;;9.57;;
20014;SDS011;61787;42.022;23.078;2022-10-18T05:30:43;18.37;;;11.20;;
20014;SDS011;61787;42.022;23.078;2022-10-18T05:31:44;21.23;;;10.93;;
20014;SDS011;61787;42.022;23.078;2022-10-18T05:32:46;19.17;;;10.40;;
20014;SDS011;61787;42.022;23.078;2022-10-18T05:33:47;17.13;;;10.47;;
20014;SDS011;61787;42.022;23.078;2022-10-18T05:34:49;17.80;;;9.47;;
20014;SDS011;61787;42.022;23.078;2022-10-18T05:35:50;18.03;;;9.80;;
20014;SDS011;61787;42.022;23.078;2022-10-18T05:36:52;16.43;;;8.70;;
20014;SDS011;61787;42.022;23.078;2022-10-18T05:37:53;14.50;;;8.70;;
20014;SDS011;61787;42.022;23.078;2022-10-18T05:38:55;16.70;;;9.73;;
20014;SDS011;61787;42.022;23.078;2022-10-18T05:40:01;15.70;;;7.50;;
20014;SDS011;61787;42.022;23.078;2022-10-18T05:41:02;16.27;;;8.60;;
20014;SDS011;61787;42.022;23.078;2022-10-18T05:42:05;15.10;;;8.37;;
20014;SDS011;61787;42.022;23.078;2022-10-18T05:43:07;12.33;;;8.57;;
20014;SDS011;61787;42.022;23.078;2022-10-18T05:44:08;13.33;;;8.63;;
20014;SDS011;61787;42.022;23.078;2022-10-18T05:45:10;11.90;;;8.57;;
20014;SDS011;61787;42.022;23.078;2022-10-18T05:46:11;13.07;;;8.13;;
20014;SDS011;61787;42.022;23.078;2022-10-18T05:47:15;14.50;;;8.70;;
20014;SDS011;61787;42.022;23.078;2022-10-18T05:48:17;10.43;;;7.67;;
20014;SDS011;61787;42.022;23.078;2022-10-18T05:49:19;11.50;;;7.57;;
20014;SDS011;61787;42.022;23.078;2022-10-18T05:50:20;10.43;;;7.60;;
20014;SDS011;61787;42.022;23.078;2022-10-18T05:51:22;10.17;;;7.10;;
20014;SDS011;61787;42.022;23.078;2022-10-18T05:52:24;11.13;;;7.67;;
20014;SDS011;61787;42.022;23.078;2022-10-18T05:53:26;9.63;;;7.53;;
20014;SDS011;61787;42.022;23.078;2022-10-18T05:54:38;10.63;;;6.83;;
20014;SDS011;61787;42.022;23.078;2022-10-18T05:55:40;10.50;;;7.20;;
20014;SDS011;61787;42.022;23.078;2022-10-18T05:56:42;10.10;;;7.57;;
20014;SDS011;61787;42.022;23.078;2022-10-18T05:57:47;11.87;;;7.70;;
20014;SDS011;61787;42.022;23.078;2022-10-18T05:58:50;11.23;;;7.10;;
20014;SDS011;61787;42.022;23.078;2022-10-18T05:59:52;11.30;;;7.50;;
20014;SDS011;61787;42.022;23.078;2022-10-18T06:00:53;12.30;;;7.43;;
20014;SDS011;61787;42.022;23.078;2022-10-18T06:01:59;12.03;;;7.40;;
20014;SDS011;61787;42.022;23.078;2022-10-18T06:03:00;16.60;;;7.60;;
20014;SDS011;61787;42.022;23.078;2022-10-18T06:04:02;11.93;;;7.40;;
20014;SDS011;61787;42.022;23.078;2022-10-18T06:05:04;11.13;;;7.80;;
20014;SDS011;61787;42.022;23.078;2022-10-18T06:06:06;11.70;;;7.73;;
20014;SDS011;61787;42.022;23.078;2022-10-18T06:07:10;12.17;;;8.10;;
20014;SDS011;61787;42.022;23.078;2022-10-18T06:08:12;12.23;;;7.27;;
20014;SDS011;61787;42.022;23.078;2022-10-18T06:09:14;9.80;;;7.50;;
20014;SDS011;61787;42.022;23.078;2022-10-18T06:10:15;12.23;;;7.30;;
20014;SDS011;61787;42.022;23.078;2022-10-18T06:11:18;10.87;;;7.10;;
20014;SDS011;61787;42.022;23.078;2022-10-18T06:12:20;12.10;;;7.47;;
20014;SDS011;61787;42.022;23.078;2022-10-18T06:13:22;18.77;;;7.23;;
20014;SDS011;61787;42.022;23.078;2022-10-18T06:14:23;11.97;;;7.53;;
20014;SDS011;61787;42.022;23.078;2022-10-18T06:15:25;15.10;;;7.93;;
20014;SDS011;61787;42.022;23.078;2022-10-18T06:16:26;18.53;;;8.03;;
20014;SDS011;61787;42.022;23.078;2022-10-18T06:17:32;9.93;;;7.00;;
20014;SDS011;61787;42.022;23.078;2022-10-18T06:18:34;13.57;;;7.13;;
20014;SDS011;61787;42.022;23.078;2022-10-18T06:19:36;13.23;;;6.90;;
20014;SDS011;61787;42.022;23.078;2022-10-18T06:20:38;10.23;;;6.97;;
20014;SDS011;61787;42.022;23.078;2022-10-18T06:21:40;11.17;;;7.40;;
20014;SDS011;61787;42.022;23.078;2022-10-18T06:22:41;18.03;;;7.80;;
20014;SDS011;61787;42.022;23.078;2022-10-18T06:23:46;14.63;;;8.53;;
20014;SDS011;61787;42.022;23.078;2022-10-18T06:24:51;10.97;;;6.63;;
20014;SDS011;61787;42.022;23.078;2022-10-18T06:25:58;8.93;;;7.17;;
20014;SDS011;61787;42.022;23.078;2022-10-18T06:27:04;15.17;;;6.60;;
20014;SDS011;61787;42.022;23.078;2022-10-18T06:28:09;16.93;;;7.53;;
20014;SDS011;61787;42.022;23.078;2022-10-18T06:29:12;12.47;;;6.97;;
20014;SDS011;61787;42.022;23.078;2022-10-18T06:30:15;11.40;;;7.53;;
20014;SDS011;61787;42.022;23.078;2022-10-18T06:31:18;10.97;;;7.03;;
20014;SDS011;61787;42.022;23.078;2022-10-18T06:32:21;10.77;;;7.23;;
20014;SDS011;61787;42.022;23.078;2022-10-18T06:33:23;11.87;;;6.77;;
20014;SDS011;61787;42.022;23.078;2022-10-18T06:34:24;13.03;;;7.23;;